.
WxDataArchive / Data Records for 2014-02-18
2014-02-17 February 2014 2014-02-19

Data Records for Tuesday, 18 February 2014

Time	Temp	Chill	HIndex	Humid	Dewpt	 Wind 	HiWind	WindDir	Rain 	Barom 
-----	----	-----	------	-----	-----	------	------	-------	-----	----- 
00:00	27.8	27.8	27.8	92	25.8	3	7	270	0.00	29.730 
00:05	27.8	27.8	27.8	92	25.8	3	5	248	0.00	29.730 
00:10	27.9	23.3	27.9	92	25.9	4	9	270	0.00	29.730 
00:15	27.9	23.3	27.9	92	25.9	4	10	270	0.00	29.736 
00:20	27.9	23.3	27.9	92	25.9	4	10	270	0.00	29.736 
00:25	27.9	23.3	27.9	92	25.9	4	10	270	0.00	29.736 
00:30	27.9	22.3	27.9	92	25.9	5	10	270	0.00	29.737 
00:35	27.9	23.3	27.9	92	25.9	4	7	270	0.00	29.737 
00:40	27.9	23.3	27.9	92	25.9	4	6	270	0.00	29.737 
00:45	28.1	23.6	28.1	92	26.1	4	10	270	0.00	29.744 
00:50	28.1	22.5	28.1	93	26.3	5	10	270	0.00	29.744 
00:55	28.1	23.6	28.1	93	26.3	4	11	270	0.00	29.744 
01:00	28.1	22.5	28.1	92	26.1	5	9	270	0.00	29.754 
01:05	28.1	23.6	28.1	92	26.1	4	6	270	0.00	29.754 
01:10	28.1	22.5	28.1	92	26.1	5	10	270	0.00	29.754 
01:15	28.1	22.5	28.1	92	26.1	5	10	270	0.00	29.763 
01:20	28.1	23.6	28.1	92	26.1	4	6	270	0.00	29.763 
01:25	28.1	23.6	28.1	92	26.1	4	10	270	0.00	29.763 
01:30	28.1	22.5	28.1	91	25.8	5	11	270	0.00	29.770 
01:35	28.1	22.5	28.1	91	25.8	5	10	270	0.00	29.770 
01:40	28.1	23.6	28.1	91	25.8	4	8	270	0.00	29.770 
01:45	28.1	23.6	28.1	91	25.8	4	8	270	0.00	29.784 
01:50	27.9	21.3	27.9	90	25.4	6	13	270	0.00	29.784 
01:55	27.9	21.3	27.9	90	25.4	6	11	270	0.00	29.784 
02:00	27.9	22.3	27.9	90	25.4	5	11	270	0.00	29.792 
02:05	27.9	27.9	27.9	89	25.1	3	7	270	0.00	29.792 
02:10	27.9	21.3	27.9	89	25.1	6	12	270	0.00	29.792 
02:15	27.8	22.1	27.8	89	25.0	5	12	270	0.00	29.800 
02:20	27.8	23.2	27.8	88	24.7	4	11	248	0.00	29.800 
02:25	27.6	21.9	27.6	88	24.5	5	11	270	0.00	29.800 
02:30	27.6	23.0	27.6	88	24.5	4	8	270	0.00	29.815 
02:35	27.5	21.8	27.5	87	24.1	5	10	270	0.00	29.815 
02:40	27.5	21.8	27.5	87	24.1	5	12	270	0.00	29.815 
02:45	27.5	21.8	27.5	87	24.1	5	9	270	0.00	29.829 
02:50	27.5	21.8	27.5	87	24.1	5	10	270	0.00	29.829 
02:55	27.3	21.6	27.3	86	23.7	5	10	270	0.00	29.829 
03:00	27.3	21.6	27.3	86	23.7	5	10	270	0.00	29.845 
03:05	27.3	21.6	27.3	86	23.7	5	10	270	0.00	29.845 
03:10	27.3	21.6	27.3	86	23.7	5	11	270	0.00	29.845 
03:15	27.2	21.4	27.2	85	23.3	5	9	270	0.00	29.853 
03:20	27.2	22.5	27.2	85	23.3	4	11	270	0.00	29.853 
03:25	27.0	21.2	27.0	85	23.1	5	9	270	0.00	29.853 
03:30	26.9	21.1	26.9	85	23.0	5	10	270	0.00	29.866 
03:35	26.7	20.9	26.7	85	22.8	5	12	270	0.00	29.866 
03:40	26.7	20.9	26.7	85	22.8	5	14	270	0.00	29.866 
03:45	26.7	22.0	26.7	85	22.8	4	7	270	0.00	29.876 
03:50	26.7	20.9	26.7	85	22.8	5	9	270	0.00	29.876 
03:55	26.6	20.7	26.6	85	22.7	5	12	270	0.00	29.876 
04:00	26.6	26.6	26.6	85	22.7	3	5	270	0.00	29.880 
04:05	26.4	26.4	26.4	85	22.5	3	7	270	0.00	29.880 
04:10	26.3	20.4	26.3	84	22.1	5	12	270	0.00	29.880 
04:15	26.1	20.1	26.1	84	21.9	5	10	270	0.00	29.898 
04:20	26.1	21.3	26.1	84	21.9	4	10	270	0.00	29.898 
04:25	26.1	21.3	26.1	84	21.9	4	7	270	0.00	29.898 
04:30	26.0	20.0	26.0	83	21.6	5	13	270	0.00	29.913 
04:35	25.8	19.8	25.8	83	21.4	5	9	270	0.00	29.913 
04:40	25.7	20.8	25.7	83	21.3	4	9	270	0.00	29.913 
04:45	25.6	19.6	25.6	82	20.9	5	10	270	0.00	29.925 
04:50	25.6	19.6	25.6	82	20.9	5	10	270	0.00	29.925 
04:55	25.4	20.5	25.4	82	20.7	4	10	270	0.00	29.925 
05:00	25.3	20.3	25.3	81	20.3	4	12	270	0.00	29.930 
05:05	25.3	20.3	25.3	81	20.3	4	6	270	0.00	29.930 
05:10	25.3	20.3	25.3	81	20.3	4	8	270	0.00	29.930 
05:15	25.1	25.1	25.1	82	20.4	3	6	270	0.00	29.944 
05:20	25.1	25.1	25.1	82	20.4	3	6	270	0.00	29.944 
05:25	25.1	25.1	25.1	82	20.4	3	5	248	0.00	29.944 
05:30	25.1	25.1	25.1	82	20.4	3	6	270	0.00	29.957 
05:35	25.1	25.1	25.1	81	20.1	3	6	270	0.00	29.957 
05:40	25.0	20.0	25.0	81	20.0	4	10	270	0.00	29.957 
05:45	24.8	19.8	24.8	81	19.8	4	7	270	0.00	29.973 
05:50	24.8	24.8	24.8	81	19.8	3	7	270	0.00	29.973 
05:55	24.8	24.8	24.8	81	19.8	3	6	270	0.00	29.973 
06:00	24.8	24.8	24.8	81	19.8	3	7	270	0.00	29.979 
06:05	24.7	24.7	24.7	81	19.7	2	5	248	0.00	29.979 
06:10	24.7	24.7	24.7	81	19.7	3	7	270	0.00	29.979 
06:15	24.7	24.7	24.7	81	19.7	2	4	248	0.00	29.984 
06:20	24.7	24.7	24.7	81	19.7	3	5	270	0.00	29.984 
06:25	24.8	24.8	24.8	81	19.8	3	5	270	0.00	29.984 
06:30	24.8	24.8	24.8	81	19.8	2	4	270	0.00	29.993 
06:35	24.7	24.7	24.7	81	19.7	3	5	270	0.00	29.993 
06:40	24.7	24.7	24.7	81	19.7	3	5	248	0.00	29.993 
06:45	24.5	24.5	24.5	81	19.5	2	5	248	0.00	29.996 
06:50	24.4	24.4	24.4	81	19.4	2	4	248	0.00	29.996 
06:55	24.4	24.4	24.4	81	19.4	3	6	248	0.00	29.996 
07:00	24.2	24.2	24.2	81	19.2	3	6	270	0.00	30.008 
07:05	24.2	24.2	24.2	81	19.2	2	4	270	0.00	30.008 
07:10	24.1	24.1	24.1	81	19.1	2	4	270	0.00	30.008 
07:15	24.1	24.1	24.1	81	19.1	2	4	270	0.00	30.008 
07:20	24.1	24.1	24.1	81	19.1	2	5	270	0.00	30.008 
07:25	24.1	24.1	24.1	81	19.1	1	3	270	0.00	30.008 
07:30	24.1	24.1	24.1	81	19.1	1	2	270	0.00	30.011 
07:35	23.9	23.9	23.9	81	18.9	1	3	270	0.00	30.011 
07:40	24.1	24.1	24.1	81	19.1	1	3	270	0.00	30.011 
07:45	24.1	24.1	24.1	81	19.1	1	2	270	0.00	30.021 
07:50	24.1	24.1	24.1	82	19.4	0	2	270	0.00	30.021 
07:55	24.1	24.1	24.1	82	19.4	1	2	270	0.00	30.021 
08:00	24.1	24.1	24.1	82	19.4	0	2	270	0.00	30.025 
08:05	24.2	24.2	24.2	82	19.5	0	2	270	0.00	30.025 
08:10	24.2	24.2	24.2	82	19.5	0	2	270	0.00	30.025 
08:15	24.4	24.4	24.4	82	19.7	0	2	270	0.00	30.036 
08:20	24.5	24.5	24.5	83	20.1	0	3	270	0.00	30.036 
08:25	24.8	24.8	24.8	83	20.4	0	1	270	0.00	30.036 
08:30	25.0	25.0	25.0	83	20.6	0	1	270	0.00	30.034 
08:35	25.1	25.1	25.1	83	20.7	0	2	270	0.00	30.034 
08:40	25.3	25.3	25.3	83	20.9	0	1	270	0.00	30.034 
08:45	25.4	25.4	25.4	83	21.0	0	1	270	0.00	30.040 
08:50	25.6	25.6	25.6	83	21.2	0	1	270	0.00	30.040 
08:55	25.7	25.7	25.7	83	21.3	0	1	270	0.00	30.040 
09:00	25.8	25.8	25.8	83	21.4	0	1	270	0.00	30.049 
09:05	26.1	26.1	26.1	83	21.7	0	1	270	0.00	30.049 
09:10	26.4	26.4	26.4	83	22.0	0	1	270	0.00	30.049 
09:15	26.7	26.7	26.7	83	22.2	0	3	270	0.00	30.048 
09:20	27.0	27.0	27.0	83	22.5	0	3	270	0.00	30.048 
09:25	27.2	27.2	27.2	83	22.7	0	2	270	0.00	30.048 
09:30	27.6	27.6	27.6	83	23.1	0	1	270	0.00	30.048 
09:35	27.9	27.9	27.9	83	23.4	1	2	270	0.00	30.048 
09:40	28.2	28.2	28.2	83	23.7	0	4	270	0.00	30.048 
09:45	28.5	28.5	28.5	83	24.0	1	3	248	0.00	30.053 
09:50	28.8	28.8	28.8	83	24.3	1	3	248	0.00	30.053 
09:55	29.1	29.1	29.1	83	24.6	1	3	248	0.00	30.053 
10:00	29.4	29.4	29.4	83	24.9	0	2	248	0.00	30.050 
10:05	29.8	29.8	29.8	83	25.3	0	3	248	0.00	30.050 
10:10	30.3	30.3	30.3	83	25.8	1	2	248	0.00	30.050 
10:15	30.7	30.7	30.7	83	26.2	0	3	248	0.00	30.046 
10:20	31.2	31.2	31.2	83	26.6	0	2	248	0.00	30.046 
10:25	31.5	31.5	31.5	83	26.9	0	2	248	0.00	30.046 
10:30	31.9	31.9	31.9	83	27.3	1	3	248	0.00	30.043 
10:35	32.4	32.4	32.4	82	27.5	1	4	248	0.00	30.043 
10:40	32.5	32.5	32.5	82	27.6	2	4	248	0.00	30.043 
10:45	32.5	32.5	32.5	82	27.6	1	3	248	0.00	30.045 
10:50	32.7	32.7	32.7	82	27.8	1	3	248	0.00	30.045 
10:55	32.8	32.8	32.8	82	27.9	1	2	248	0.00	30.045 
11:00	33.1	33.1	33.1	83	28.5	0	2	248	0.00	30.036 
11:05	33.2	33.2	33.2	82	28.3	0	2	248	0.00	30.036 
11:10	33.4	33.4	33.4	83	28.8	0	3	248	0.00	30.036 
11:15	33.5	33.5	33.5	83	28.9	1	4	248	0.00	30.027 
11:20	33.7	33.7	33.7	84	29.4	1	4	248	0.00	30.027 
11:25	33.5	33.5	33.5	85	29.5	1	6	248	0.00	30.027 
11:30	33.7	33.7	33.7	85	29.7	0	2	270	0.00	30.025 
11:35	33.8	33.8	33.8	85	29.8	1	4	68	0.00	30.025 
11:40	33.8	33.8	33.8	84	29.5	2	5	248	0.00	30.025 
11:45	34.0	34.0	34.0	84	29.7	1	4	248	0.00	30.030 
11:50	34.4	34.4	34.4	84	30.1	0	3	248	0.00	30.030 
11:55	34.4	34.4	34.4	82	29.5	1	3	248	0.00	30.030 
12:00	34.7	34.7	34.7	81	29.5	1	3	248	0.00	30.026 
12:05	35.0	35.0	35.0	80	29.5	1	5	248	0.00	30.026 
12:10	35.2	35.2	35.2	79	29.4	1	5	270	0.00	30.026 
12:15	35.5	35.5	35.5	80	30.0	1	4	248	0.00	30.015 
12:20	36.0	36.0	36.0	79	30.1	0	2	248	0.01	30.015 
12:25	36.3	36.3	36.3	79	30.4	1	3	248	0.00	30.015 
12:30	36.5	36.5	36.5	78	30.3	0	2	248	0.00	30.006 
12:35	36.5	36.5	36.5	76	29.7	1	3	248	0.00	30.006 
12:40	36.2	36.2	36.2	75	29.1	2	6	90	0.00	30.006 
12:45	36.2	36.2	36.2	75	29.1	1	3	112	0.00	29.990 
12:50	36.5	36.5	36.5	75	29.3	1	4	135	0.00	29.990 
12:55	36.5	36.5	36.5	74	29.0	1	6	90	0.00	29.990 
13:00	36.8	36.8	36.8	75	29.6	0	3	90	0.00	29.987 
13:05	36.8	36.8	36.8	73	29.0	2	6	135	0.00	29.987 
13:10	36.9	36.9	36.9	75	29.7	0	2	135	0.00	29.987 
13:15	36.9	36.9	36.9	72	28.7	1	4	112	0.00	29.976 
13:20	37.0	37.0	37.0	73	29.2	1	3	90	0.00	29.976 
13:25	37.2	37.2	37.2	73	29.4	1	3	90	0.00	29.976 
13:30	37.5	37.5	37.5	71	29.0	1	3	90	0.00	29.973 
13:35	37.6	37.6	37.6	70	28.7	1	4	112	0.00	29.973 
13:40	37.9	37.9	37.9	67	27.9	2	7	68	0.00	29.973 
13:45	38.3	38.3	38.3	66	28.0	1	4	112	0.00	29.958 
13:50	38.8	38.8	38.8	66	28.4	1	3	112	0.00	29.958 
13:55	38.9	38.9	38.9	65	28.2	1	5	135	0.00	29.958 
14:00	39.1	39.1	39.1	65	28.3	1	3	112	0.00	29.952 
14:05	39.1	39.1	39.1	64	28.0	2	5	112	0.00	29.952 
14:10	39.2	39.2	39.2	63	27.7	2	5	112	0.00	29.952 
14:15	39.3	39.3	39.3	64	28.2	2	4	90	0.00	29.940 
14:20	39.5	39.5	39.5	63	28.0	2	6	90	0.00	29.940 
14:25	39.5	39.5	39.5	63	28.0	2	6	112	0.00	29.940 
14:30	39.6	39.6	39.6	63	28.1	2	5	112	0.00	29.927 
14:35	39.8	39.8	39.8	62	27.9	2	5	90	0.01	29.927 
14:40	40.1	40.1	40.1	62	28.1	2	7	90	0.00	29.927 
14:45	40.3	40.3	40.3	62	28.3	2	5	90	0.01	29.918 
14:50	40.6	40.6	40.6	61	28.2	2	6	68	0.01	29.918 
14:55	40.8	40.8	40.8	61	28.4	1	5	68	0.00	29.918 
15:00	41.1	41.1	41.1	61	28.7	2	7	112	0.01	29.905 
15:05	41.2	41.2	41.2	59	28.0	2	6	90	0.00	29.905 
15:10	41.5	41.5	41.5	59	28.3	2	6	90	0.01	29.905 
15:15	41.6	41.6	41.6	58	27.9	2	5	112	0.00	29.893 
15:20	41.9	41.9	41.9	58	28.2	1	6	112	0.01	29.893 
15:25	42.1	42.1	42.1	58	28.4	2	5	90	0.01	29.893 
15:30	42.2	42.2	42.2	58	28.5	1	7	112	0.00	29.890 
15:35	42.3	42.3	42.3	58	28.6	2	7	112	0.01	29.890 
15:40	42.3	42.3	42.3	57	28.2	3	10	90	0.01	29.890 
15:45	42.3	42.3	42.3	57	28.2	1	5	112	0.00	29.879 
15:50	42.5	42.5	42.5	57	28.4	2	9	112	0.01	29.879 
15:55	42.5	42.5	42.5	56	27.9	2	9	90	0.00	29.879 
16:00	42.5	42.5	42.5	56	27.9	1	5	112	0.00	29.875 
16:05	42.5	42.5	42.5	56	27.9	2	5	90	0.01	29.875 
16:10	42.5	42.5	42.5	56	27.9	2	7	112	0.00	29.875 
16:15	42.5	42.5	42.5	55	27.5	2	5	112	0.01	29.873 
16:20	42.6	42.6	42.6	56	28.0	1	4	112	0.00	29.873 
16:25	42.6	42.6	42.6	56	28.0	1	3	112	0.00	29.873 
16:30	42.8	42.8	42.8	55	27.8	2	5	112	0.00	29.866 
16:35	42.8	42.8	42.8	54	27.3	1	7	90	0.01	29.866 
16:40	42.8	42.8	42.8	55	27.8	1	4	90	0.00	29.866 
16:45	42.8	42.8	42.8	55	27.8	1	6	90	0.00	29.858 
16:50	42.8	42.8	42.8	54	27.3	2	6	90	0.01	29.858 
16:55	42.8	42.8	42.8	54	27.3	1	4	45	0.00	29.858 
17:00	42.6	42.6	42.6	54	27.1	1	3	68	0.00	29.856 
17:05	42.5	42.5	42.5	55	27.5	1	3	45	0.00	29.856 
17:10	42.3	42.3	42.3	54	26.9	2	4	112	0.01	29.856 
17:15	42.5	42.5	42.5	54	27.0	2	5	90	0.00	29.845 
17:20	42.5	42.5	42.5	54	27.0	2	5	90	0.00	29.845 
17:25	42.5	42.5	42.5	54	27.0	2	4	68	0.00	29.845 
17:30	42.3	42.3	42.3	54	26.9	2	7	90	0.01	29.839 
17:35	42.3	42.3	42.3	54	26.9	2	5	90	0.00	29.839 
17:40	42.3	42.3	42.3	54	26.9	3	10	112	0.00	29.839 
17:45	42.5	42.5	42.5	54	27.0	3	7	112	0.00	29.816 
17:50	42.6	40.3	42.6	53	26.7	4	8	90	0.00	29.816 
17:55	42.6	42.6	42.6	54	27.1	3	10	90	0.01	29.816 
18:00	42.5	42.5	42.5	54	27.0	3	12	90	0.00	29.815 
18:05	42.2	42.2	42.2	55	27.2	2	6	90	0.00	29.815 
18:10	42.1	42.1	42.1	55	27.1	2	6	112	0.00	29.815 
18:15	42.1	42.1	42.1	55	27.1	3	8	90	0.01	29.812 
18:20	41.9	41.9	41.9	56	27.4	2	6	90	0.00	29.812 
18:25	41.8	41.8	41.8	57	27.7	2	5	90	0.00	29.812 
18:30	41.6	41.6	41.6	58	27.9	1	5	68	0.00	29.818 
18:35	41.5	41.5	41.5	57	27.4	1	5	45	0.00	29.818 
18:40	41.5	41.5	41.5	58	27.8	1	3	45	0.00	29.818 
18:45	41.5	41.5	41.5	58	27.8	3	12	112	0.01	29.806 
18:50	41.6	41.6	41.6	57	27.5	3	10	90	0.00	29.806 
18:55	41.5	41.5	41.5	58	27.8	1	5	90	0.00	29.806 
19:00	41.3	41.3	41.3	58	27.7	1	5	90	0.00	29.820 
19:05	41.1	41.1	41.1	59	27.9	0	2	90	0.00	29.820 
19:10	40.9	40.9	40.9	59	27.7	0	5	248	0.00	29.820 
19:15	40.8	40.8	40.8	60	28.0	0	3	90	0.01	29.820 
19:20	40.8	40.8	40.8	60	28.0	1	5	90	0.00	29.820 
19:25	40.9	40.9	40.9	59	27.7	2	7	90	0.00	29.820 
19:30	41.1	41.1	41.1	59	27.9	1	5	90	0.00	29.817 
19:35	41.2	41.2	41.2	58	27.6	3	7	90	0.00	29.817 
19:40	41.2	41.2	41.2	59	28.0	1	10	68	0.00	29.817 
19:45	41.2	41.2	41.2	59	28.0	2	6	90	0.00	29.814 
19:50	41.2	41.2	41.2	59	28.0	2	6	90	0.00	29.814 
19:55	41.2	41.2	41.2	58	27.6	2	5	112	0.00	29.814 
20:00	41.3	41.3	41.3	58	27.7	2	9	112	0.01	29.802 
20:05	41.5	41.5	41.5	58	27.8	3	6	90	0.00	29.802 
20:10	41.5	41.5	41.5	58	27.8	2	7	90	0.00	29.802 
20:15	41.2	41.2	41.2	59	28.0	1	3	90	0.00	29.797 
20:20	41.1	41.1	41.1	59	27.9	1	4	90	0.00	29.797 
20:25	40.9	40.9	40.9	60	28.1	1	4	90	0.00	29.797 
20:30	40.9	40.9	40.9	60	28.1	1	5	90	0.00	29.792 
20:35	40.8	40.8	40.8	60	28.0	1	5	90	0.01	29.792 
20:40	40.8	40.8	40.8	60	28.0	0	2	90	0.00	29.792 
20:45	40.8	40.8	40.8	60	28.0	1	5	90	0.00	29.785 
20:50	40.9	40.9	40.9	60	28.1	1	3	112	0.00	29.785 
20:55	40.9	40.9	40.9	60	28.1	1	5	112	0.00	29.785 
21:00	40.9	40.9	40.9	60	28.1	1	4	112	0.00	29.783 
21:05	40.8	40.8	40.8	61	28.4	0	2	112	0.00	29.783 
21:10	40.8	40.8	40.8	61	28.4	1	5	90	0.00	29.783 
21:15	40.8	40.8	40.8	61	28.4	1	3	68	0.00	29.769 
21:20	40.6	40.6	40.6	61	28.2	0	4	90	0.00	29.769 
21:25	40.5	40.5	40.5	62	28.5	0	3	90	0.00	29.769 
21:30	40.3	40.3	40.3	62	28.3	0	2	90	0.01	29.767 
21:35	40.3	40.3	40.3	62	28.3	0	3	90	0.00	29.767 
21:40	40.3	40.3	40.3	62	28.3	1	3	90	0.00	29.767 
21:45	40.2	40.2	40.2	63	28.6	0	2	90	0.00	29.767 
21:50	40.2	40.2	40.2	63	28.6	0	2	90	0.00	29.767 
21:55	40.1	40.1	40.1	63	28.5	0	2	90	0.00	29.767 
22:00	39.9	39.9	39.9	64	28.7	0	2	90	0.00	29.755 
22:05	39.8	39.8	39.8	64	28.6	0	1	90	0.00	29.755 
22:10	39.6	39.6	39.6	65	28.8	0	2	90	0.00	29.755 
22:15	39.5	39.5	39.5	65	28.7	0	2	90	0.00	29.747 
22:20	39.3	39.3	39.3	65	28.5	0	1	90	0.00	29.747 
22:25	39.3	39.3	39.3	66	28.9	0	1	90	0.00	29.747 
22:30	39.3	39.3	39.3	66	28.9	0	2	90	0.00	29.736 
22:35	39.2	39.2	39.2	66	28.8	0	1	90	0.00	29.736 
22:40	39.1	39.1	39.1	67	29.1	0	2	90	0.00	29.736 
22:45	39.1	39.1	39.1	67	29.1	0	2	90	0.00	29.730 
22:50	38.9	38.9	38.9	67	28.9	0	2	90	0.00	29.730 
22:55	39.1	39.1	39.1	67	29.1	0	3	90	0.00	29.730 
23:00	39.1	39.1	39.1	67	29.1	0	2	90	0.00	29.720 
23:05	39.2	39.2	39.2	67	29.2	0	2	90	0.00	29.720 
23:10	39.3	39.3	39.3	67	29.3	0	3	90	0.01	29.720 
23:15	39.5	39.5	39.5	67	29.5	0	3	90	0.00	29.711 
23:20	39.5	39.5	39.5	66	29.1	0	3	248	0.00	29.711 
23:25	39.5	39.5	39.5	66	29.1	0	2	248	0.00	29.711 
23:30	39.6	39.6	39.6	66	29.2	1	5	248	0.00	29.709 
23:35	39.6	39.6	39.6	66	29.2	0	3	248	0.00	29.709 
23:40	39.6	39.6	39.6	66	29.2	0	2	248	0.00	29.709 
23:45	39.8	39.8	39.8	65	29.0	0	3	248	0.00	29.700 
23:50	40.1	40.1	40.1	65	29.3	1	3	248	0.00	29.700 
23:55	40.3	40.3	40.3	64	29.1	1	5	248	0.00	29.700 

CoCoRaHS
IN-AL-39
A2 Web Hosting
Creative Commons License
GoDaddy
search engine by freefind advanced

loaded 2018-11-20 08:46:28 • last modified 2010-11-18 10:43:29
Privacy PolicyDisclaimer
• wx.awcolley.com is powered by PmWiki v.2002016 •
• all content (unless otherwise noted) © 2018 A W Colley